Time;durP1;ratioP1;P1;durP2;ratioP2;P2;SDS_P1;SDS_P2;PMS_P1;PMS_P2;Temp;Humidity;BMP_temperature;BMP_pressure;BME280_temperature;BME280_humidity;BME280_pressure;Samples;Min_cycle;Max_cycle;Signal;HPM_P1;HPM_P2
2023/07/18 00:02:07;;;;;;;;;;;22.40;61.70;;;;;;5020270;28;823;-70
2023/07/18 00:04:33;;;;;;;;;;;22.40;61.70;;;;;;5017153;28;848;-70
2023/07/18 00:06:58;;;;;;;;;;;22.40;61.70;;;;;;5019623;28;883;-70
2023/07/18 00:09:24;;;;;;;;;;;22.40;61.70;;;;;;5018466;28;1259;-70
2023/07/18 00:11:50;;;;;;;;;;;22.40;61.70;;;;;;5017966;28;792;-70
2023/07/18 00:14:15;;;;;;;;;;;22.40;61.70;;;;;;5020972;28;882;-70
2023/07/18 00:16:41;;;;;;;;;;;22.40;61.80;;;;;;5018130;28;903;-70
2023/07/18 00:19:07;;;;;;;;;;;22.40;61.80;;;;;;5019078;28;1409;-70
2023/07/18 00:21:33;;;;;;;;;;;22.40;61.80;;;;;;5021239;28;1895;-70
2023/07/18 00:23:59;;;;;;;;;;;22.40;61.80;;;;;;5015581;28;953;-69
2023/07/18 00:26:24;;;;;;;;;;;22.40;61.80;;;;;;5018609;28;798;-70
2023/07/18 00:28:53;;;;;;;;;;;22.40;61.80;;;;;;5020764;28;1386;-70
2023/07/18 00:31:19;;;;;;;;;;;22.40;61.90;;;;;;5020276;28;880;-69
2023/07/18 00:33:44;;;;;;;;;;;22.40;61.90;;;;;;5017601;28;999;-69
2023/07/18 00:36:09;;;;;;;;;;;22.40;61.90;;;;;;5009646;28;1108;-69
2023/07/18 00:38:35;;;;;;;;;;;22.40;61.90;;;;;;5017593;28;1362;-71
2023/07/18 00:41:00;;;;;;;;;;;22.40;62.00;;;;;;5020768;28;1906;-71
2023/07/18 00:43:30;;;;;;;;;;;22.40;62.00;;;;;;5017019;28;1340;-71
2023/07/18 00:45:56;;;;;;;;;;;22.40;62.00;;;;;;5020027;28;810;-71
2023/07/18 00:48:21;;;;;;;;;;;22.40;62.00;;;;;;5018907;28;788;-71
2023/07/18 00:50:47;;;;;;;;;;;22.40;62.10;;;;;;5013255;28;1260;-70
2023/07/18 00:53:12;;;;;;;;;;;22.40;62.10;;;;;;5018991;28;850;-71
2023/07/18 00:55:38;;;;;;;;;;;22.40;62.10;;;;;;5017816;28;905;-70
2023/07/18 00:58:03;;;;;;;;;;;22.40;62.10;;;;;;5016834;28;949;-70
2023/07/18 01:00:29;;;;;;;;;;;22.40;62.10;;;;;;5022061;28;1902;-71
2023/07/18 01:02:54;;;;;;;;;;;22.40;62.10;;;;;;5021968;28;846;-70
2023/07/18 01:05:20;;;;;;;;;;;22.40;62.10;;;;;;5017716;28;865;-69
2023/07/18 01:07:45;;;;;;;;;;;22.40;62.10;;;;;;5017521;28;958;-69
2023/07/18 01:10:18;;;;;;;;;;;22.40;62.10;;;;;;5023158;28;1293;-69
2023/07/18 01:12:44;;;;;;;;;;;22.40;62.10;;;;;;5022079;28;979;-69
2023/07/18 01:15:12;;;;;;;;;;;22.40;62.10;;;;;;5019487;28;810;-69
2023/07/18 01:17:47;;;;;;;;;;;22.40;62.10;;;;;;5018485;28;846;-69
2023/07/18 01:20:16;;;;;;;;;;;22.40;62.20;;;;;;5021423;28;1894;-69
2023/07/18 01:22:42;;;;;;;;;;;22.40;62.20;;;;;;5020117;28;825;-69
2023/07/18 01:25:07;;;;;;;;;;;22.40;62.20;;;;;;5021751;28;1209;-69
2023/07/18 01:27:36;;;;;;;;;;;22.40;62.20;;;;;;5023624;28;1256;-69
2023/07/18 01:30:02;;;;;;;;;;;22.40;62.20;;;;;;5019568;28;1303;-69
2023/07/18 01:32:27;;;;;;;;;;;22.40;62.30;;;;;;5021516;28;882;-69
2023/07/18 01:34:53;;;;;;;;;;;22.40;62.30;;;;;;5021812;28;1002;-69
2023/07/18 01:37:18;;;;;;;;;;;22.40;62.30;;;;;;5021990;28;900;-69
2023/07/18 01:39:44;;;;;;;;;;;22.40;62.30;;;;;;5022466;28;1997;-69
2023/07/18 01:42:09;;;;;;;;;;;22.40;62.30;;;;;;5022714;28;1358;-69
2023/07/18 01:44:36;;;;;;;;;;;22.40;62.30;;;;;;5015173;28;857;-69
2023/07/18 01:47:02;;;;;;;;;;;22.40;62.40;;;;;;5020613;28;902;-69
2023/07/18 01:49:28;;;;;;;;;;;22.40;62.40;;;;;;5022585;28;1257;-69
2023/07/18 01:51:53;;;;;;;;;;;22.40;62.40;;;;;;5022199;28;985;-69
2023/07/18 01:54:18;;;;;;;;;;;22.40;62.40;;;;;;5023785;28;884;-69
2023/07/18 01:56:44;;;;;;;;;;;22.40;62.40;;;;;;5019917;28;876;-70
2023/07/18 01:59:09;;;;;;;;;;;22.40;62.40;;;;;;5020619;28;1268;-70
2023/07/18 02:01:35;;;;;;;;;;;22.40;62.40;;;;;;5020413;28;1911;-69
2023/07/18 02:04:00;;;;;;;;;;;22.40;62.40;;;;;;5022233;28;938;-70
2023/07/18 02:06:26;;;;;;;;;;;22.40;62.50;;;;;;5020009;28;879;-70
2023/07/18 02:08:51;;;;;;;;;;;22.40;62.50;;;;;;5023258;28;1265;-70
2023/07/18 02:11:17;;;;;;;;;;;22.40;62.50;;;;;;5023527;28;1006;-69
2023/07/18 02:13:43;;;;;;;;;;;22.40;62.50;;;;;;5023026;28;770;-70
2023/07/18 02:16:08;;;;;;;;;;;22.40;62.50;;;;;;5019922;28;898;-70
2023/07/18 02:18:34;;;;;;;;;;;22.40;62.60;;;;;;5023105;28;1263;-69
2023/07/18 02:20:59;;;;;;;;;;;22.40;62.60;;;;;;5020710;28;1967;-69
2023/07/18 02:23:25;;;;;;;;;;;22.40;62.50;;;;;;5022367;28;1570;-69
2023/07/18 02:25:50;;;;;;;;;;;22.40;62.60;;;;;;5025390;28;1339;-69
2023/07/18 02:28:16;;;;;;;;;;;22.40;62.60;;;;;;5023437;28;1306;-69
2023/07/18 02:30:42;;;;;;;;;;;22.40;62.60;;;;;;5022658;28;1332;-71
2023/07/18 02:33:08;;;;;;;;;;;22.40;62.60;;;;;;5021989;28;814;-69
2023/07/18 02:35:33;;;;;;;;;;;22.40;62.60;;;;;;5018943;28;840;-69
2023/07/18 02:37:59;;;;;;;;;;;22.40;62.60;;;;;;5021436;28;843;-68
2023/07/18 02:40:24;;;;;;;;;;;22.40;62.60;;;;;;5019816;28;1906;-68
2023/07/18 02:42:49;;;;;;;;;;;22.40;62.70;;;;;;5022833;28;1001;-71
2023/07/18 02:45:15;;;;;;;;;;;22.40;62.70;;;;;;5019914;28;827;-71
2023/07/18 02:47:40;;;;;;;;;;;22.40;62.70;;;;;;5019294;28;1161;-70
2023/07/18 02:50:09;;;;;;;;;;;22.40;62.70;;;;;;5018262;28;1293;-70
2023/07/18 02:52:34;;;;;;;;;;;22.40;62.70;;;;;;5022329;28;800;-69
2023/07/18 02:55:00;;;;;;;;;;;22.40;62.70;;;;;;5018124;28;805;-69
2023/07/18 02:57:26;;;;;;;;;;;22.40;62.70;;;;;;5019634;28;961;-69
2023/07/18 02:59:51;;;;;;;;;;;22.40;62.70;;;;;;5020526;28;1970;-70
2023/07/18 03:02:17;;;;;;;;;;;22.40;62.70;;;;;;5018229;28;1199;-69
2023/07/18 03:04:43;;;;;;;;;;;22.40;62.80;;;;;;5018942;28;917;-70
2023/07/18 03:07:08;;;;;;;;;;;22.30;62.70;;;;;;5017755;28;1222;-69
2023/07/18 03:09:34;;;;;;;;;;;22.40;62.80;;;;;;5016118;28;1354;-69
2023/07/18 03:12:00;;;;;;;;;;;22.40;62.80;;;;;;5020010;28;836;-69
2023/07/18 03:14:26;;;;;;;;;;;22.40;62.80;;;;;;5017759;28;856;-70
2023/07/18 03:16:51;;;;;;;;;;;22.40;62.80;;;;;;5018384;28;872;-70
2023/07/18 03:19:17;;;;;;;;;;;22.40;62.90;;;;;;5017811;28;1388;-69
2023/07/18 03:21:45;;;;;;;;;;;22.40;62.90;;;;;;5018913;28;1902;-69
2023/07/18 03:24:11;;;;;;;;;;;22.40;62.90;;;;;;5019855;28;863;-69
2023/07/18 03:26:36;;;;;;;;;;;22.30;62.80;;;;;;5020830;28;848;-69
2023/07/18 03:29:05;;;;;;;;;;;22.40;62.90;;;;;;5021895;28;1386;-69
2023/07/18 03:31:31;;;;;;;;;;;22.40;62.90;;;;;;5019616;28;840;-70
2023/07/18 03:33:56;;;;;;;;;;;22.40;62.90;;;;;;5017249;28;954;-69
2023/07/18 03:36:22;;;;;;;;;;;22.40;62.90;;;;;;5016985;28;849;-69
2023/07/18 03:38:47;;;;;;;;;;;22.40;63.00;;;;;;5016884;28;1225;-70
2023/07/18 03:41:13;;;;;;;;;;;22.40;63.00;;;;;;5021981;28;1890;-70
2023/07/18 03:43:38;;;;;;;;;;;22.40;63.00;;;;;;5022674;28;1336;-69
2023/07/18 03:46:04;;;;;;;;;;;22.40;63.00;;;;;;5015946;28;1174;-69
2023/07/18 03:48:29;;;;;;;;;;;22.40;63.00;;;;;;5016076;28;939;-69
2023/07/18 03:50:54;;;;;;;;;;;22.40;63.00;;;;;;5018330;28;1165;-70
2023/07/18 03:53:20;;;;;;;;;;;22.30;62.90;;;;;;5016606;28;804;-70
2023/07/18 03:55:45;;;;;;;;;;;22.40;63.00;;;;;;5017087;28;883;-70
2023/07/18 03:58:11;;;;;;;;;;;22.40;63.00;;;;;;5022908;28;869;-69
2023/07/18 04:00:36;;;;;;;;;;;22.40;63.00;;;;;;5016922;28;1910;-69
2023/07/18 04:03:02;;;;;;;;;;;22.40;63.10;;;;;;5018651;28;1066;-70
2023/07/18 04:05:27;;;;;;;;;;;22.40;63.00;;;;;;5011867;28;974;-70
2023/07/18 04:07:53;;;;;;;;;;;22.40;63.10;;;;;;5019347;28;939;-70
2023/07/18 04:10:18;;;;;;;;;;;22.40;63.10;;;;;;5021005;28;1213;-70
2023/07/18 04:12:44;;;;;;;;;;;22.30;63.00;;;;;;5012497;28;1268;-70
2023/07/18 04:15:10;;;;;;;;;;;22.40;63.20;;;;;;5018834;28;883;-70
2023/07/18 04:17:35;;;;;;;;;;;22.40;63.10;;;;;;5017700;28;1515;-70
2023/07/18 04:20:01;;;;;;;;;;;22.40;63.20;;;;;;5023158;28;1883;-70
2023/07/18 04:22:26;;;;;;;;;;;22.40;63.20;;;;;;5023878;28;839;-70
2023/07/18 04:24:55;;;;;;;;;;;22.40;63.20;;;;;;5017030;28;911;-70
2023/07/18 04:27:21;;;;;;;;;;;22.40;63.10;;;;;;5019484;28;1284;-70
2023/07/18 04:29:46;;;;;;;;;;;22.40;63.20;;;;;;5018308;28;1311;-69
2023/07/18 04:32:12;;;;;;;;;;;22.30;63.10;;;;;;5018131;28;1061;-70
2023/07/18 04:34:37;;;;;;;;;;;22.30;63.10;;;;;;5016644;28;962;-70
2023/07/18 04:37:03;;;;;;;;;;;22.30;63.20;;;;;;5019804;28;946;-72
2023/07/18 04:39:29;;;;;;;;;;;22.30;63.20;;;;;;5017133;28;1979;-69
2023/07/18 04:41:54;;;;;;;;;;;22.40;63.30;;;;;;5018003;28;1267;-69
2023/07/18 04:44:20;;;;;;;;;;;22.40;63.30;;;;;;5020883;28;1391;-68
2023/07/18 04:46:45;;;;;;;;;;;22.40;63.30;;;;;;5020674;28;911;-68
2023/07/18 04:49:11;;;;;;;;;;;22.40;63.30;;;;;;5012773;28;1319;-71
2023/07/18 04:51:36;;;;;;;;;;;22.30;63.30;;;;;;5014770;28;943;-71
2023/07/18 04:54:02;;;;;;;;;;;22.40;63.40;;;;;;5004436;28;793;-71
2023/07/18 04:56:28;;;;;;;;;;;22.40;63.40;;;;;;5012565;28;787;-72
2023/07/18 04:58:53;;;;;;;;;;;22.40;63.40;;;;;;5019521;28;1348;-71
2023/07/18 05:01:19;;;;;;;;;;;22.30;63.30;;;;;;5016184;28;1961;-71
2023/07/18 05:03:44;;;;;;;;;;;22.40;63.40;;;;;;5019773;28;798;-70
2023/07/18 05:06:10;;;;;;;;;;;22.40;63.20;;;;;;5018247;28;930;-71
2023/07/18 05:08:36;;;;;;;;;;;22.30;60.70;;;;;;5016998;28;1323;-71
2023/07/18 05:11:01;;;;;;;;;;;22.30;59.30;;;;;;5018328;28;895;-70
2023/07/18 05:13:27;;;;;;;;;;;22.30;58.40;;;;;;5018657;28;859;-71
2023/07/18 05:15:52;;;;;;;;;;;22.30;58.90;;;;;;5020343;28;987;-70
2023/07/18 05:18:18;;;;;;;;;;;22.30;60.20;;;;;;5017105;28;1280;-71
2023/07/18 05:20:43;;;;;;;;;;;22.30;59.90;;;;;;5019660;28;1902;-70
2023/07/18 05:23:09;;;;;;;;;;;22.30;60.70;;;;;;5018734;28;931;-71
2023/07/18 05:25:36;;;;;;;;;;;22.30;60.00;;;;;;5016896;28;1021;-70
2023/07/18 05:28:02;;;;;;;;;;;22.20;59.70;;;;;;5016393;28;1247;-70
2023/07/18 05:30:27;;;;;;;;;;;22.20;59.00;;;;;;5018901;28;1363;-71
2023/07/18 05:32:53;;;;;;;;;;;22.20;60.00;;;;;;5016235;28;1092;-70
2023/07/18 05:35:18;;;;;;;;;;;22.20;59.90;;;;;;5018923;28;902;-70
2023/07/18 05:37:44;;;;;;;;;;;22.20;60.90;;;;;;5020515;28;986;-70
2023/07/18 05:40:10;;;;;;;;;;;22.20;60.30;;;;;;5019672;28;2023;-70
2023/07/18 05:42:35;;;;;;;;;;;22.20;60.20;;;;;;5013354;28;1337;-70
2023/07/18 05:45:01;;;;;;;;;;;22.20;60.00;;;;;;5025345;28;1014;-70
2023/07/18 05:47:26;;;;;;;;;;;22.20;60.40;;;;;;5022451;28;787;-70
2023/07/18 05:49:52;;;;;;;;;;;22.20;60.20;;;;;;5025433;28;1258;-70
2023/07/18 05:52:17;;;;;;;;;;;22.20;60.20;;;;;;5022696;28;887;-71
2023/07/18 05:54:44;;;;;;;;;;;22.20;59.70;;;;;;5024356;28;874;-70
2023/07/18 05:57:10;;;;;;;;;;;22.20;60.50;;;;;;5022187;28;863;-70
2023/07/18 05:59:36;;;;;;;;;;;22.20;60.40;;;;;;5020193;28;1950;-70
2023/07/18 06:02:04;;;;;;;;;;;22.20;60.10;;;;;;5023775;28;1297;-69
2023/07/18 06:04:30;;;;;;;;;;;22.20;60.30;;;;;;5020883;28;1279;-69
2023/07/18 06:06:55;;;;;;;;;;;22.20;60.00;;;;;;5020183;28;856;-71
2023/07/18 06:09:21;;;;;;;;;;;22.20;59.90;;;;;;5020182;28;1636;-71
2023/07/18 06:11:47;;;;;;;;;;;22.20;60.50;;;;;;5018753;28;868;-70
2023/07/18 06:14:12;;;;;;;;;;;22.20;60.30;;;;;;5021512;28;1050;-70
2023/07/18 06:16:38;;;;;;;;;;;22.20;60.70;;;;;;5020497;28;833;-70
2023/07/18 06:19:04;;;;;;;;;;;22.20;60.30;;;;;;5022530;28;1355;-71
2023/07/18 06:21:29;;;;;;;;;;;22.20;60.10;;;;;;5017401;28;1969;-70
2023/07/18 06:23:55;;;;;;;;;;;22.20;60.40;;;;;;5017041;28;864;-70
2023/07/18 06:26:21;;;;;;;;;;;22.20;60.50;;;;;;5018390;28;828;-69
2023/07/18 06:28:46;;;;;;;;;;;22.20;60.70;;;;;;5018993;28;1305;-70
2023/07/18 06:31:12;;;;;;;;;;;22.20;60.70;;;;;;5024013;28;859;-70
2023/07/18 06:33:40;;;;;;;;;;;22.20;60.90;;;;;;5022439;28;852;-69
2023/07/18 06:36:05;;;;;;;;;;;22.20;60.50;;;;;;5022288;28;820;-70
2023/07/18 06:38:31;;;;;;;;;;;22.20;60.00;;;;;;5019819;28;856;-71
2023/07/18 06:40:56;;;;;;;;;;;22.20;60.40;;;;;;5020384;28;1906;-69
2023/07/18 06:43:22;;;;;;;;;;;22.20;60.00;;;;;;5021679;28;875;-70
2023/07/18 06:45:47;;;;;;;;;;;22.10;60.50;;;;;;5018417;28;1286;-70
2023/07/18 06:48:13;;;;;;;;;;;22.20;60.70;;;;;;5012478;28;1380;-72
2023/07/18 06:50:46;;;;;;;;;;;22.20;60.20;;;;;;5016267;28;1342;-69
2023/07/18 06:53:12;;;;;;;;;;;22.10;60.30;;;;;;5015826;28;910;-70
2023/07/18 06:55:37;;;;;;;;;;;22.20;60.30;;;;;;5015559;28;838;-72
2023/07/18 06:58:03;;;;;;;;;;;22.10;59.80;;;;;;5019672;28;938;-72
2023/07/18 07:00:29;;;;;;;;;;;22.20;60.40;;;;;;5019035;28;1910;-72
2023/07/18 07:02:54;;;;;;;;;;;22.10;60.40;;;;;;5022941;28;891;-72
2023/07/18 07:05:20;;;;;;;;;;;22.10;60.30;;;;;;5024846;28;797;-72
2023/07/18 07:07:45;;;;;;;;;;;22.20;60.60;;;;;;5025403;28;829;-72
2023/07/18 07:10:11;;;;;;;;;;;22.10;60.40;;;;;;5018322;28;1375;-72
2023/07/18 07:12:36;;;;;;;;;;;22.10;59.90;;;;;;5020947;28;837;-72
2023/07/18 07:15:02;;;;;;;;;;;22.10;60.00;;;;;;5021406;28;922;-72
2023/07/18 07:17:27;;;;;;;;;;;22.10;60.30;;;;;;5022456;28;822;-72
2023/07/18 07:19:53;;;;;;;;;;;22.10;60.30;;;;;;5022327;28;1906;-73
2023/07/18 07:22:18;;;;;;;;;;;22.10;60.30;;;;;;5018642;28;922;-71
2023/07/18 07:24:46;;;;;;;;;;;22.10;59.90;;;;;;5019250;28;960;-72
2023/07/18 07:27:13;;;;;;;;;;;22.10;59.70;;;;;;5015876;28;1237;-72
2023/07/18 07:29:41;;;;;;;;;;;22.10;59.90;;;;;;5019522;28;1246;-73
2023/07/18 07:32:07;;;;;;;;;;;22.10;59.90;;;;;;5017051;28;2146;-72
2023/07/18 07:34:33;;;;;;;;;;;22.10;60.20;;;;;;5021786;28;2149;-72
2023/07/18 07:36:58;;;;;;;;;;;22.10;59.70;;;;;;5020170;28;1433;-71
2023/07/18 07:39:23;;;;;;;;;;;22.10;59.60;;;;;;5023651;28;1469;-72
2023/07/18 07:41:49;;;;;;;;;;;22.10;59.90;;;;;;5021501;28;1940;-72
2023/07/18 07:44:15;;;;;;;;;;;22.10;60.00;;;;;;5021135;28;835;-72
2023/07/18 07:46:40;;;;;;;;;;;22.10;59.90;;;;;;5021450;28;863;-72
2023/07/18 07:49:06;;;;;;;;;;;22.10;60.10;;;;;;5020126;28;2123;-72
2023/07/18 07:51:31;;;;;;;;;;;22.10;59.90;;;;;;5022043;28;1926;-71
2023/07/18 07:53:58;;;;;;;;;;;22.20;60.10;;;;;;5020438;28;1977;-71
2023/07/18 07:56:23;;;;;;;;;;;22.20;60.00;;;;;;5017770;28;1060;-72
2023/07/18 07:58:49;;;;;;;;;;;22.10;59.80;;;;;;5017677;28;1311;-72
2023/07/18 08:01:14;;;;;;;;;;;22.10;59.60;;;;;;5018617;28;1965;-72
2023/07/18 08:03:40;;;;;;;;;;;22.20;59.70;;;;;;5017753;28;1365;-72
2023/07/18 08:06:06;;;;;;;;;;;22.20;59.70;;;;;;5019229;28;868;-72
2023/07/18 08:08:31;;;;;;;;;;;22.10;59.60;;;;;;5012376;28;1292;-71
2023/07/18 08:10:57;;;;;;;;;;;22.20;59.60;;;;;;5017154;28;1103;-72
2023/07/18 08:13:22;;;;;;;;;;;22.20;59.70;;;;;;5017230;28;827;-72
2023/07/18 08:15:48;;;;;;;;;;;22.20;59.80;;;;;;5017636;28;907;-72
2023/07/18 08:18:13;;;;;;;;;;;22.20;59.80;;;;;;5020291;28;1348;-72
2023/07/18 08:20:39;;;;;;;;;;;22.20;59.60;;;;;;5014883;28;1906;-72
2023/07/18 08:23:05;;;;;;;;;;;22.20;59.10;;;;;;5018423;28;800;-72
2023/07/18 08:25:30;;;;;;;;;;;22.20;58.90;;;;;;5019979;28;854;-72
2023/07/18 08:27:56;;;;;;;;;;;22.20;58.50;;;;;;5015875;28;1269;-71
2023/07/18 08:30:22;;;;;;;;;;;22.20;58.80;;;;;;5013604;28;1259;-72
2023/07/18 08:32:47;;;;;;;;;;;22.20;58.80;;;;;;5017465;28;1202;-72
2023/07/18 08:35:13;;;;;;;;;;;22.20;59.10;;;;;;5019493;28;938;-72
2023/07/18 08:37:39;;;;;;;;;;;22.20;58.90;;;;;;5019139;28;931;-72
2023/07/18 08:40:05;;;;;;;;;;;22.20;58.90;;;;;;5019517;28;1981;-71
2023/07/18 08:42:31;;;;;;;;;;;22.20;59.10;;;;;;5020660;28;1338;-71
2023/07/18 08:44:57;;;;;;;;;;;22.20;58.80;;;;;;5014753;28;882;-72
2023/07/18 08:47:22;;;;;;;;;;;22.20;58.80;;;;;;5018204;28;868;-72
2023/07/18 08:49:48;;;;;;;;;;;22.20;59.00;;;;;;5020991;28;1273;-72
2023/07/18 08:52:13;;;;;;;;;;;22.20;59.10;;;;;;5019880;28;867;-72
2023/07/18 08:54:39;;;;;;;;;;;22.20;59.10;;;;;;5021133;28;875;-72
2023/07/18 08:57:05;;;;;;;;;;;22.20;59.00;;;;;;5015337;28;879;-72
2023/07/18 08:59:31;;;;;;;;;;;22.20;58.60;;;;;;5015503;28;1318;-72
2023/07/18 09:01:56;;;;;;;;;;;22.20;58.20;;;;;;5016678;28;1957;-72
2023/07/18 09:04:22;;;;;;;;;;;22.20;58.00;;;;;;5016051;28;853;-72
2023/07/18 09:06:57;;;;;;;;;;;22.20;57.70;;;;;;5019283;28;812;-72
2023/07/18 09:09:23;;;;;;;;;;;22.20;57.80;;;;;;5016087;28;1267;-72
2023/07/18 09:12:02;;;;;;;;;;;22.20;57.70;;;;;;5015513;28;863;-72
2023/07/18 09:14:31;;;;;;;;;;;22.30;58.20;;;;;;5012973;28;865;-71
2023/07/18 09:16:58;;;;;;;;;;;22.20;58.40;;;;;;5015811;28;825;-72
2023/07/18 09:19:40;;;;;;;;;;;22.30;58.30;;;;;;5017506;28;1369;-71
2023/07/18 09:22:09;;;;;;;;;;;22.30;57.60;;;;;;5010079;28;1393;-72
2023/07/18 09:24:35;;;;;;;;;;;22.30;57.60;;;;;;5020255;28;884;-72
2023/07/18 09:27:02;;;;;;;;;;;22.30;58.00;;;;;;5024434;28;1346;-72
2023/07/18 09:29:28;;;;;;;;;;;22.30;58.00;;;;;;5022943;28;1354;-73
2023/07/18 09:31:53;;;;;;;;;;;22.30;57.90;;;;;;5021615;28;1924;-72
2023/07/18 09:34:19;;;;;;;;;;;22.30;57.50;;;;;;5023391;28;1339;-71
2023/07/18 09:36:53;;;;;;;;;;;22.30;57.50;;;;;;5019954;28;1250;-72
2023/07/18 09:39:19;;;;;;;;;;;22.30;56.40;;;;;;5020045;28;1508;-71
2023/07/18 09:41:44;;;;;;;;;;;22.30;55.80;;;;;;5013143;28;1973;-72
2023/07/18 09:44:09;;;;;;;;;;;22.30;55.60;;;;;;5024921;28;1728;-72
2023/07/18 09:46:35;;;;;;;;;;;22.30;55.40;;;;;;5026310;28;808;-71
2023/07/18 09:49:01;;;;;;;;;;;22.30;55.20;;;;;;5022513;28;1260;-72
2023/07/18 09:51:30;;;;;;;;;;;22.30;55.50;;;;;;5021400;28;820;-72
2023/07/18 09:53:56;;;;;;;;;;;22.40;56.50;;;;;;5016869;28;911;-71
2023/07/18 09:56:21;;;;;;;;;;;22.30;56.70;;;;;;5020838;28;907;-72
2023/07/18 09:58:47;;;;;;;;;;;22.40;56.30;;;;;;5019915;28;1248;-72
2023/07/18 10:01:19;;;;;;;;;;;22.40;57.10;;;;;;5016170;28;1898;-72
2023/07/18 10:03:46;;;;;;;;;;;22.40;57.30;;;;;;5015943;28;827;-72
2023/07/18 10:06:12;;;;;;;;;;;22.30;56.40;;;;;;5023646;28;1530;-73
2023/07/18 10:08:38;;;;;;;;;;;22.40;55.60;;;;;;5021138;28;1627;-72
2023/07/18 10:11:07;;;;;;;;;;;22.40;54.90;;;;;;5022303;28;875;-72
2023/07/18 10:13:59;;;;;;;;;;;22.40;55.10;;;;;;5019571;28;863;-72
2023/07/18 10:16:27;;;;;;;;;;;22.40;55.30;;;;;;5005511;28;1198;-72
2023/07/18 10:18:52;;;;;;;;;;;22.40;56.40;;;;;;5018948;28;1306;-72
2023/07/18 10:21:31;;;;;;;;;;;22.40;56.20;;;;;;5018114;28;1953;-73
2023/07/18 10:23:56;;;;;;;;;;;22.40;56.30;;;;;;5023054;28;1320;-73
2023/07/18 10:26:29;;;;;;;;;;;22.40;56.10;;;;;;5022603;28;958;-73
2023/07/18 10:28:55;;;;;;;;;;;22.40;55.40;;;;;;5018814;28;1380;-73
2023/07/18 10:31:33;;;;;;;;;;;22.40;54.70;;;;;;5019185;28;1284;-72
2023/07/18 10:34:05;;;;;;;;;;;22.40;55.50;;;;;;5019250;28;859;-73
2023/07/18 10:36:31;;;;;;;;;;;22.40;54.60;;;;;;5008916;28;1278;-71
2023/07/18 10:38:56;;;;;;;;;;;22.40;54.40;;;;;;5016027;28;1379;-73
2023/07/18 10:41:22;;;;;;;;;;;22.40;54.30;;;;;;5019806;28;2045;-73
2023/07/18 10:43:47;;;;;;;;;;;22.40;53.90;;;;;;5019295;28;1543;-72
2023/07/18 10:46:13;;;;;;;;;;;22.50;54.00;;;;;;5016946;28;863;-73
2023/07/18 10:48:38;;;;;;;;;;;22.50;55.00;;;;;;5021286;28;1266;-73
2023/07/18 10:51:07;;;;;;;;;;;22.50;55.60;;;;;;5022869;28;849;-72
2023/07/18 10:53:33;;;;;;;;;;;22.50;55.30;;;;;;5024568;28;922;-72
2023/07/18 10:55:59;;;;;;;;;;;22.50;55.30;;;;;;5023882;28;934;-73
2023/07/18 10:58:24;;;;;;;;;;;22.50;54.50;;;;;;5017730;28;851;-73
2023/07/18 11:00:49;;;;;;;;;;;22.50;54.10;;;;;;5018457;28;1961;-73
2023/07/18 11:03:21;;;;;;;;;;;22.50;54.90;;;;;;5022069;28;1456;-73
2023/07/18 11:05:50;;;;;;;;;;;22.50;54.40;;;;;;5023196;28;1730;-72
2023/07/18 11:08:45;;;;;;;;;;;22.40;55.60;;;;;;5018933;28;1917;-72
2023/07/18 11:11:10;;;;;;;;;;;22.50;55.30;;;;;;5011179;28;1310;-71
2023/07/18 11:13:37;;;;;;;;;;;22.40;55.70;;;;;;5018078;28;1227;-71
2023/07/18 11:16:06;;;;;;;;;;;22.40;55.40;;;;;;5020486;28;2040;-71
2023/07/18 11:18:32;;;;;;;;;;;22.50;54.80;;;;;;5021335;28;1254;-71
2023/07/18 11:21:00;;;;;;;;;;;22.40;54.70;;;;;;5020610;28;2001;-72
2023/07/18 11:23:25;;;;;;;;;;;22.50;55.40;;;;;;5022885;28;851;-71
2023/07/18 11:25:51;;;;;;;;;;;22.50;55.80;;;;;;5013659;28;927;-71
2023/07/18 11:28:16;;;;;;;;;;;22.50;55.40;;;;;;5018391;28;1479;-71
2023/07/18 11:30:45;;;;;;;;;;;22.50;55.20;;;;;;5018980;28;1365;-71
2023/07/18 11:33:11;;;;;;;;;;;22.50;55.10;;;;;;5021532;28;1014;-71
2023/07/18 11:35:37;;;;;;;;;;;22.50;55.10;;;;;;5015725;28;1262;-71
2023/07/18 11:38:02;;;;;;;;;;;22.50;55.00;;;;;;5018729;28;869;-71
2023/07/18 11:40:29;;;;;;;;;;;22.50;54.60;;;;;;5018137;28;2168;-72
2023/07/18 11:42:56;;;;;;;;;;;22.50;55.40;;;;;;5021999;28;886;-71
2023/07/18 11:45:22;;;;;;;;;;;22.50;55.40;;;;;;5025669;28;998;-70
2023/07/18 11:47:52;;;;;;;;;;;22.50;54.80;;;;;;5006429;28;1302;-70
2023/07/18 11:50:17;;;;;;;;;;;22.50;54.40;;;;;;5019608;28;1297;-70
2023/07/18 11:52:45;;;;;;;;;;;22.50;54.80;;;;;;5016920;28;917;-70
2023/07/18 11:55:10;;;;;;;;;;;22.50;55.60;;;;;;5015494;28;1199;-70
2023/07/18 11:57:36;;;;;;;;;;;22.50;54.60;;;;;;5020623;28;883;-70
2023/07/18 12:00:02;;;;;;;;;;;22.50;54.00;;;;;;5019050;28;1890;-70
2023/07/18 12:02:27;;;;;;;;;;;22.50;54.50;;;;;;5015603;28;850;-70
2023/07/18 12:04:55;;;;;;;;;;;22.50;53.60;;;;;;5018706;28;855;-70
2023/07/18 12:07:20;;;;;;;;;;;22.50;52.50;;;;;;5014116;28;871;-70
2023/07/18 12:09:45;;;;;;;;;;;22.50;53.90;;;;;;5021052;28;1353;-70
2023/07/18 12:12:11;;;;;;;;;;;22.50;54.70;;;;;;5020883;28;862;-70
2023/07/18 12:14:36;;;;;;;;;;;22.50;54.70;;;;;;5019033;28;847;-70
2023/07/18 12:17:02;;;;;;;;;;;22.50;53.80;;;;;;5018224;28;940;-70
2023/07/18 12:19:27;;;;;;;;;;;22.50;53.60;;;;;;5015724;28;1279;-70
2023/07/18 12:21:53;;;;;;;;;;;22.50;53.10;;;;;;5018863;28;1910;-70
2023/07/18 12:24:18;;;;;;;;;;;22.50;53.20;;;;;;5019136;28;840;-71
2023/07/18 12:26:45;;;;;;;;;;;22.50;54.10;;;;;;5021259;28;1207;-69
2023/07/18 12:29:13;;;;;;;;;;;22.50;53.20;;;;;;5020134;28;1367;-69
2023/07/18 12:31:42;;;;;;;;;;;22.50;52.90;;;;;;5021351;28;895;-69
2023/07/18 12:34:07;;;;;;;;;;;22.60;52.80;;;;;;5019725;28;850;-69
2023/07/18 12:36:33;;;;;;;;;;;22.60;52.80;;;;;;5014583;28;850;-70
2023/07/18 12:38:58;;;;;;;;;;;22.60;51.60;;;;;;5011430;28;2149;-70
2023/07/18 12:41:24;;;;;;;;;;;22.60;52.40;;;;;;5019452;28;1965;-69
2023/07/18 12:43:50;;;;;;;;;;;22.60;52.40;;;;;;5020670;28;1257;-69
2023/07/18 12:46:15;;;;;;;;;;;22.60;52.50;;;;;;5020463;28;1016;-69
2023/07/18 12:48:41;;;;;;;;;;;22.60;52.40;;;;;;5020498;28;1294;-69
2023/07/18 12:51:06;;;;;;;;;;;22.60;52.30;;;;;;5019638;28;1273;-69
2023/07/18 12:53:32;;;;;;;;;;;22.60;51.90;;;;;;5023964;28;828;-69
2023/07/18 12:55:57;;;;;;;;;;;22.60;51.10;;;;;;5023244;28;970;-69
2023/07/18 12:58:23;;;;;;;;;;;22.60;51.30;;;;;;5021948;28;927;-70
2023/07/18 13:00:48;;;;;;;;;;;22.60;51.40;;;;;;5022982;28;1955;-69
2023/07/18 13:03:14;;;;;;;;;;;22.60;51.20;;;;;;5004224;28;835;-69
2023/07/18 13:05:39;;;;;;;;;;;22.60;51.10;;;;;;5024463;28;928;-69
2023/07/18 13:08:05;;;;;;;;;;;22.60;51.00;;;;;;5019759;28;1043;-69
2023/07/18 13:10:30;;;;;;;;;;;22.60;51.00;;;;;;5024730;28;1281;-69
2023/07/18 13:12:56;;;;;;;;;;;22.60;51.10;;;;;;5022426;28;939;-69
2023/07/18 13:15:21;;;;;;;;;;;22.60;51.40;;;;;;5024304;28;936;-69
2023/07/18 13:17:47;;;;;;;;;;;22.60;51.60;;;;;;5022442;28;857;-69
2023/07/18 13:20:12;;;;;;;;;;;22.60;51.50;;;;;;5019969;28;1902;-69
2023/07/18 13:22:38;;;;;;;;;;;22.60;51.50;;;;;;5022060;28;880;-69
2023/07/18 13:25:04;;;;;;;;;;;22.60;51.40;;;;;;5023491;28;911;-69
2023/07/18 13:27:29;;;;;;;;;;;22.60;51.20;;;;;;5025153;28;1293;-69
2023/07/18 13:29:55;;;;;;;;;;;22.60;51.10;;;;;;5024227;28;1362;-69
2023/07/18 13:32:20;;;;;;;;;;;22.70;51.80;;;;;;5019890;28;994;-69
2023/07/18 13:34:45;;;;;;;;;;;22.60;51.00;;;;;;5020713;28;1042;-69
2023/07/18 13:37:11;;;;;;;;;;;22.60;51.00;;;;;;5022286;28;940;-69
2023/07/18 13:39:36;;;;;;;;;;;22.60;53.00;;;;;;5022213;28;1225;-69
2023/07/18 13:42:02;;;;;;;;;;;22.60;53.20;;;;;;5022323;28;1906;-69
2023/07/18 13:44:28;;;;;;;;;;;22.60;52.30;;;;;;5024673;28;808;-69
2023/07/18 13:46:53;;;;;;;;;;;22.60;51.90;;;;;;5023067;28;902;-69
2023/07/18 13:49:18;;;;;;;;;;;22.60;52.50;;;;;;5022685;28;1353;-69
2023/07/18 13:51:44;;;;;;;;;;;22.60;52.00;;;;;;5024580;28;875;-69
2023/07/18 13:54:09;;;;;;;;;;;22.60;51.80;;;;;;5021284;28;832;-69
2023/07/18 13:56:35;;;;;;;;;;;22.60;51.80;;;;;;5019606;28;1558;-69
2023/07/18 13:59:00;;;;;;;;;;;22.60;51.70;;;;;;5022557;28;1248;-69
2023/07/18 14:01:26;;;;;;;;;;;22.60;51.50;;;;;;5013154;28;1899;-69
2023/07/18 14:03:51;;;;;;;;;;;22.60;51.60;;;;;;5019589;28;1597;-69
2023/07/18 14:06:17;;;;;;;;;;;22.60;53.40;;;;;;5019844;28;830;-69
2023/07/18 14:08:43;;;;;;;;;;;22.60;52.50;;;;;;5020830;28;1246;-69
2023/07/18 14:11:09;;;;;;;;;;;22.60;52.30;;;;;;5021226;28;950;-69
2023/07/18 14:13:34;;;;;;;;;;;22.60;52.00;;;;;;5022830;28;929;-69
2023/07/18 14:16:00;;;;;;;;;;;22.60;51.40;;;;;;5022352;28;1201;-70
2023/07/18 14:18:25;;;;;;;;;;;22.60;49.80;;;;;;5025865;28;817;-69
2023/07/18 14:20:51;;;;;;;;;;;22.60;49.70;;;;;;5020146;28;1894;-70
2023/07/18 14:23:16;;;;;;;;;;;22.60;50.50;;;;;;5026867;28;852;-70
2023/07/18 14:25:42;;;;;;;;;;;22.60;50.30;;;;;;5017682;28;832;-70
2023/07/18 14:28:07;;;;;;;;;;;22.60;49.80;;;;;;5019519;28;1290;-69
2023/07/18 14:30:33;;;;;;;;;;;22.60;49.40;;;;;;5021816;28;1280;-69